Strona główna
METAR-TAF:

METAR-TAF

Lotnisko :

Kraków, Polska

Port lotniczy Kraków-Balice

Szerokość geograficzna: 50-05N, Długość geograficzna: 019-48E, wysokość: 237 m

Aktualna obserwacja pogody

Raport powstał 37 minut temu, godzina 03:00 UTC
Wiatr 6 kt od południowo-południowy zachód
Temperatura 12°C
Wilgotność 88%
Ciśnienie 1020 hPa
Widzialność 10 km lub więcej
Brak chmur poniżej 1500 m i brak chmur cumulonimbus

METAR: EPKK 220300Z 21006KT CAVOK 12/10 Q1020

czas: 05:37 (03:37 UTC)

Prognoza

Raport powstał 4 godziny i 7 minut temu, godzina 23:30 UTC
Prognoza ważna od 22 godzina 00 UTC do 22 godzina 24 UTC
Wiatr 4 kt od południowy zachód
Widzialność 10 km lub więcej
Rozproszone chmury na wysokości 4000 ft
Przejściowo
od 22 godzina 08 UTC do 22 godzina 17 UTC
Wiatr 15 kt od zachód w porywach dochodzący do 26 kt
Rozproszone chmury na wysokości 3000 ft, Cumulonimbus.

TAF: EPKK 212330Z 2200/2224 22004KT 9999 SCT040 TEMPO 2208/2217 27015G26KT SCT030CB

Obserwacja i prognoza pogody dla ponad 4000 lotnisk (raport METAR i TAF).

Dostępne stacje oznaczono żółtymi i czerwonymi punktami na mapie.

Najedź kursorem aby zobaczyć nazwę stacji.

Kliknij aby zobaczyć obserwacje i prognozy pogody.

Aby zmienić mapę: kliknij na zielony przycisk z czarnym krzyżykiem, aby powiększyć; na zielony przycisk z myślnikiem, aby pomniejszyć; na zielone strzałki, aby przejść do map sąsiednich.


METAR-TAF: